Time;durP1;ratioP1;P1;durP2;ratioP2;P2;SDS_P1;SDS_P2;PMS_P1;PMS_P2;Temp;Humidity;BMP_temperature;BMP_pressure;BME280_temperature;BME280_humidity;BME280_pressure;Samples;Min_cycle;Max_cycle;Signal;HPM_P1;HPM_P2
2021/04/06 00:00:45;;;;;;;26.88;4.20;;;;;;;2.01;83.04;101426.03;4977408;28;20054;-73
2021/04/06 00:03:14;;;;;;;27.27;4.63;;;;;;;2.04;82.40;101425.88;4989871;28;20042;-73
2021/04/06 00:05:41;;;;;;;28.25;4.75;;;;;;;2.15;81.24;101425.28;4989187;28;20030;-74
2021/04/06 00:08:09;;;;;;;28.35;3.55;;;;;;;2.23;81.40;101427.50;4983234;28;20058;-73
2021/04/06 00:10:46;;;;;;;28.45;3.92;;;;;;;2.29;80.91;101421.88;4952742;28;20035;-74
2021/04/06 00:13:12;;;;;;;26.58;4.10;;;;;;;2.16;81.14;101402.44;4988392;28;20035;-73
2021/04/06 00:15:40;;;;;;;22.98;4.50;;;;;;;2.23;81.29;101416.97;4963148;28;20059;-74
2021/04/06 00:18:09;;;;;;;25.65;4.18;;;;;;;2.27;79.32;101429.03;4983618;28;20041;-73
2021/04/06 00:20:38;;;;;;;24.88;3.13;;;;;;;2.16;78.89;101423.50;4988107;28;20030;-73
2021/04/06 00:23:06;;;;;;;22.80;3.38;;;;;;;2.24;77.90;101435.31;4986879;28;20041;-73
2021/04/06 00:25:34;;;;;;;13.77;2.53;;;;;;;2.23;76.78;101430.16;4989060;28;20057;-73
2021/04/06 00:28:04;;;;;;;18.50;3.00;;;;;;;2.23;76.14;101432.78;4985193;28;20080;-73
2021/04/06 00:30:32;;;;;;;12.98;2.75;;;;;;;2.17;76.06;101435.72;4983650;28;20073;-73
2021/04/06 00:33:12;;;;;;;18.65;3.30;;;;;;;2.21;76.29;101450.44;4988519;28;20060;-73
2021/04/06 00:35:38;;;;;;;22.25;3.38;;;;;;;2.26;77.07;101458.94;4973023;28;20568;-74
2021/04/06 00:38:25;;;;;;;19.88;3.28;;;;;;;2.30;79.26;101452.56;4968838;28;20121;-74
2021/04/06 00:40:56;;;;;;;18.70;2.90;;;;;;;2.15;80.40;101430.56;4983442;28;20026;-74
2021/04/06 00:43:41;;;;;;;15.57;2.45;;;;;;;2.32;80.63;101461.22;4992696;28;20026;-73
2021/04/06 00:46:21;;;;;;;15.80;2.25;;;;;;;1.81;80.22;101375.34;4994141;28;20026;-74
2021/04/06 00:48:48;;;;;;;16.65;2.42;;;;;;;2.21;79.52;101440.75;4983036;28;20026;-73
2021/04/06 00:51:18;;;;;;;12.23;2.60;;;;;;;2.16;79.34;101439.31;4987362;28;20033;-74
2021/04/06 00:54:05;;;;;;;17.27;3.00;;;;;;;2.07;79.27;101436.25;4986312;28;20030;-74
2021/04/06 00:56:34;;;;;;;14.65;2.47;;;;;;;2.02;79.07;101440.91;4983742;28;20030;-73
2021/04/06 00:59:03;;;;;;;16.73;2.38;;;;;;;1.97;79.09;101442.91;4983204;28;20092;-74
2021/04/06 01:01:45;;;;;;;14.90;3.15;;;;;;;1.95;78.98;101448.28;4982020;28;20054;-74
2021/04/06 01:04:21;;;;;;;15.65;2.25;;;;;;;1.66;78.48;101407.72;4979075;28;20138;-74
2021/04/06 01:07:13;;;;;;;16.48;2.95;;;;;;;1.37;79.15;101365.41;4983865;28;20053;-73
2021/04/06 01:09:42;;;;;;;16.77;2.75;;;;;;;1.93;78.89;101459.84;4987100;28;20487;-73
2021/04/06 01:12:09;;;;;;;;;;;;;;;1.90;79.41;101454.72;4984297;28;20671;-73
2021/04/06 01:14:37;;;;;;;17.80;2.83;;;;;;;1.80;79.22;101449.09;4987559;28;20460;-73
2021/04/06 01:17:03;;;;;;;;;;;;;;;1.87;78.93;101454.88;4988219;28;20030;-73
2021/04/06 01:19:30;;;;;;;27.52;3.92;;;;;;;1.92;78.97;101455.50;4984296;28;19918;-73
2021/04/06 01:22:00;;;;;;;24.35;3.67;;;;;;;1.84;79.95;101456.75;4983689;28;20053;-74
2021/04/06 01:24:30;;;;;;;27.58;3.63;;;;;;;1.87;79.62;101466.28;4987050;28;20287;-74
2021/04/06 01:26:57;;;;;;;28.08;3.45;;;;;;;1.84;79.12;101451.47;4986937;28;20053;-74
2021/04/06 01:29:24;;;;;;;24.58;3.78;;;;;;;1.95;78.71;101450.06;4962560;28;20117;-74
2021/04/06 01:31:51;;;;;;;27.35;3.70;;;;;;;2.00;78.75;101450.66;4977628;28;20137;-74
2021/04/06 01:34:18;;;;;;;21.85;3.42;;;;;;;2.06;78.49;101450.34;4984221;28;20893;-74
2021/04/06 01:36:50;;;;;;;26.38;3.15;;;;;;;2.04;78.03;101451.34;4987189;28;20578;-73
2021/04/06 01:39:16;;;;;;;16.40;2.70;;;;;;;1.92;78.34;101434.44;4983871;28;20076;-73
2021/04/06 01:41:47;;;;;;;17.52;2.88;;;;;;;1.99;78.35;101439.28;4985949;28;20048;-73
2021/04/06 01:44:13;;;;;;;14.05;2.58;;;;;;;1.67;78.82;101389.22;4977576;28;20515;-74
2021/04/06 01:46:42;;;;;;;15.85;2.80;;;;;;;1.94;78.43;101427.31;4982581;28;20512;-74
2021/04/06 01:49:08;;;;;;;20.05;2.53;;;;;;;1.96;78.50;101428.91;4990494;28;20064;-74
2021/04/06 01:51:34;;;;;;;12.85;2.50;;;;;;;1.70;78.37;101387.38;4985400;28;20042;-73
2021/04/06 01:54:06;;;;;;;15.68;2.80;;;;;;;1.94;78.82;101443.94;4979039;28;20085;-74
2021/04/06 01:56:45;;;;;;;18.40;3.05;;;;;;;1.96;79.69;101454.41;4983507;28;20032;-74
2021/04/06 01:59:15;;;;;;;18.10;2.90;;;;;;;1.98;79.46;101455.16;4988190;28;20035;-74
2021/04/06 02:01:42;;;;;;;17.02;3.20;;;;;;;1.90;79.34;101444.19;4985966;28;20085;-75
2021/04/06 02:04:10;;;;;;;19.58;3.25;;;;;;;1.82;79.67;101421.78;4989128;28;20069;-75
2021/04/06 02:06:38;;;;;;;24.67;3.78;;;;;;;1.92;80.46;101439.69;4988801;28;20033;-75
2021/04/06 02:09:08;;;;;;;17.08;2.45;;;;;;;1.84;80.50;101433.06;4986132;28;20057;-74
2021/04/06 02:11:37;;;;;;;8.25;1.58;;;;;;;1.83;79.36;101431.34;4977859;28;20078;-74
2021/04/06 02:14:08;;;;;;;10.15;2.05;;;;;;;1.68;79.55;101425.13;4983591;28;20741;-74
2021/04/06 02:17:04;;;;;;;9.80;2.10;;;;;;;1.59;79.15;101419.50;4985160;28;20121;-74
2021/04/06 02:19:35;;;;;;;8.90;1.35;;;;;;;1.49;79.01;101417.34;4986485;28;20061;-74
2021/04/06 02:22:09;;;;;;;5.88;1.20;;;;;;;1.50;78.02;101421.69;4986871;28;20519;-74
2021/04/06 02:24:41;;;;;;;5.43;1.20;;;;;;;1.44;78.14;101415.91;4988250;28;20026;-74
2021/04/06 02:27:09;;;;;;;7.95;1.27;;;;;;;1.35;77.97;101417.22;4984134;28;20092;-74
2021/04/06 02:29:42;;;;;;;;;;;;;;;1.33;78.26;101421.69;4985280;28;20034;-74
2021/04/06 02:32:09;;;;;;;9.95;1.48;;;;;;;1.29;78.55;101428.91;4980780;28;19920;-73
2021/04/06 02:34:40;;;;;;;17.48;2.00;;;;;;;1.30;79.29;101435.88;4981109;28;20037;-74
2021/04/06 02:37:12;;;;;;;11.90;2.03;;;;;;;1.32;79.80;101441.91;4985555;28;20116;-74
2021/04/06 02:39:38;;;;;;;14.57;2.33;;;;;;;1.35;80.51;101436.50;4987462;28;20121;-74
2021/04/06 02:42:23;;;;;;;13.43;2.20;;;;;;;1.49;80.59;101441.03;4986274;28;20046;-73
2021/04/06 02:44:49;;;;;;;11.57;2.40;;;;;;;1.50;80.77;101436.59;4980366;28;20485;-74
2021/04/06 02:47:16;;;;;;;13.77;2.38;;;;;;;1.55;80.64;101437.22;4962646;28;20504;-73
2021/04/06 02:49:42;;;;;;;12.45;2.35;;;;;;;1.48;81.11;101436.69;4988476;28;20125;-73
2021/04/06 02:52:08;;;;;;;12.30;2.13;;;;;;;1.49;81.03;101430.50;4980758;28;20202;-74
2021/04/06 02:54:34;;;;;;;16.35;2.85;;;;;;;1.47;80.43;101427.09;4984407;28;20505;-73
2021/04/06 02:56:59;;;;;;;13.27;2.53;;;;;;;1.41;80.76;101432.69;4979713;28;20132;-73
2021/04/06 02:59:25;;;;;;;11.20;2.28;;;;;;;1.41;80.30;101430.06;4981361;28;20747;-73
2021/04/06 03:01:57;;;;;;;11.90;2.25;;;;;;;0.69;80.40;101322.38;4972071;28;20066;-73
2021/04/06 03:04:25;;;;;;;14.10;2.17;;;;;;;1.29;81.43;101428.91;4983901;28;20053;-74
2021/04/06 03:06:52;;;;;;;10.98;1.75;;;;;;;1.00;80.64;101378.66;4979539;28;20133;-74
2021/04/06 03:09:21;;;;;;;13.68;2.60;;;;;;;0.81;79.95;101355.09;4984672;28;20114;-74
2021/04/06 03:11:50;;;;;;;12.10;1.90;;;;;;;1.20;79.78;101422.34;4980891;28;20501;-74
2021/04/06 03:14:16;;;;;;;10.48;1.58;;;;;;;1.14;80.01;101419.16;4983604;28;20031;-73
2021/04/06 03:16:41;;;;;;;12.10;2.50;;;;;;;0.99;80.16;101403.25;4961533;28;20469;-74
2021/04/06 03:19:08;;;;;;;15.25;2.35;;;;;;;0.96;79.78;101394.66;4979059;28;20446;-73
2021/04/06 03:21:35;;;;;;;13.95;1.92;;;;;;;1.11;80.73;101414.91;4959736;28;20058;-73
2021/04/06 03:24:01;;;;;;;11.82;2.25;;;;;;;1.13;80.14;101423.59;4975409;28;20034;-74
2021/04/06 03:26:28;;;;;;;14.00;2.40;;;;;;;1.13;80.87;101434.09;4970249;28;20121;-74
2021/04/06 03:29:00;;;;;;;21.73;2.85;;;;;;;0.91;80.61;101384.38;4986603;28;20038;-74
2021/04/06 03:31:28;;;;;;;16.33;2.15;;;;;;;1.27;81.07;101433.38;4978947;28;20089;-74
2021/04/06 03:33:57;;;;;;;15.48;2.13;;;;;;;1.34;80.32;101442.69;4983039;28;20031;-74
2021/04/06 03:36:29;;;;;;;22.02;2.00;;;;;;;1.36;80.95;101432.06;4982384;28;20452;-74
2021/04/06 03:39:04;;;;;;;13.40;1.88;;;;;;;1.33;80.99;101426.97;4992525;28;20030;-73
2021/04/06 03:41:30;;;;;;;12.13;3.60;;;;;;;1.52;80.89;101440.00;4968577;28;20100;-73
2021/04/06 03:44:27;;;;;;;9.48;1.88;;;;;;;1.45;81.33;101431.59;4990218;28;20096;-73
2021/04/06 03:46:59;;;;;;;9.68;2.03;;;;;;;1.33;82.02;101434.84;4987361;28;20366;-74
2021/04/06 03:49:28;;;;;;;9.27;2.13;;;;;;;1.28;81.98;101427.19;4986687;28;20038;-74
2021/04/06 03:51:58;;;;;;;9.27;1.40;;;;;;;1.18;82.18;101415.47;4982775;28;20058;-73
2021/04/06 03:54:42;;;;;;;9.55;1.77;;;;;;;1.08;82.15;101420.31;4986563;28;20030;-73
2021/04/06 03:57:45;;;;;;;8.43;1.55;;;;;;;0.94;82.99;101420.16;4980682;28;20172;-76
2021/04/06 04:00:11;;;;;;;8.68;1.73;;;;;;;0.96;81.92;101419.16;4988071;28;20054;-75
2021/04/06 04:02:37;;;;;;;7.32;1.70;;;;;;;0.94;81.39;101426.28;4967466;28;20051;-74
2021/04/06 04:05:03;;;;;;;4.45;1.48;;;;;;;0.91;81.86;101422.00;4985447;28;20050;-74
2021/04/06 04:07:32;;;;;;;12.80;1.63;;;;;;;0.80;81.95;101408.56;4990888;28;20501;-73
2021/04/06 04:09:58;;;;;;;9.77;1.65;;;;;;;0.97;82.28;101444.50;4994042;28;20042;-74
2021/04/06 04:12:23;;;;;;;10.25;1.73;;;;;;;1.11;82.03;101456.97;4979555;28;20065;-75
2021/04/06 04:14:49;;;;;;;10.88;1.80;;;;;;;1.20;82.31;101460.94;4988619;28;20405;-74
2021/04/06 04:17:14;;;;;;;6.85;1.70;;;;;;;1.09;84.16;101429.91;4982145;28;20513;-74
2021/04/06 04:19:40;;;;;;;3.83;1.20;;;;;;;1.06;85.42;101428.31;4979813;28;20033;-74
2021/04/06 04:22:05;;;;;;;6.78;1.30;;;;;;;1.00;85.09;101419.88;4986063;28;20026;-74
2021/04/06 04:24:30;;;;;;;8.52;1.70;;;;;;;0.84;85.51;101404.00;4985752;28;20572;-74
2021/04/06 04:26:56;;;;;;;10.50;1.60;;;;;;;0.72;86.30;101401.06;4981764;28;20470;-74
2021/04/06 04:29:22;;;;;;;7.07;1.45;;;;;;;0.72;85.90;101416.81;4986141;28;20026;-74
2021/04/06 04:31:49;;;;;;;8.20;1.20;;;;;;;0.61;86.93;101412.06;4985398;28;20524;-74
2021/04/06 04:34:15;;;;;;;9.83;1.80;;;;;;;0.51;86.88;101423.97;4987309;28;20034;-74
2021/04/06 04:36:40;;;;;;;7.03;1.45;;;;;;;0.35;86.53;101423.84;4989703;28;20233;-74
2021/04/06 04:39:07;;;;;;;11.25;2.00;;;;;;;0.66;86.11;101464.44;4978702;28;20031;-76
2021/04/06 04:41:32;;;;;;;4.43;1.20;;;;;;;0.63;87.41;101459.31;4984142;28;20522;-73
2021/04/06 04:43:58;;;;;;;6.97;1.70;;;;;;;0.65;88.14;101469.72;4968752;28;20141;-73
2021/04/06 04:46:24;;;;;;;6.68;1.20;;;;;;;0.60;88.05;101449.81;4986854;28;20246;-73
2021/04/06 04:48:50;;;;;;;8.70;1.65;;;;;;;0.56;89.01;101455.25;4994459;28;20567;-73
2021/04/06 04:51:15;;;;;;;9.07;1.23;;;;;;;0.52;88.95;101453.72;4986650;28;20034;-73
2021/04/06 04:53:41;;;;;;;6.80;1.25;;;;;;;0.50;89.03;101437.19;4964216;28;20045;-73
2021/04/06 04:56:06;;;;;;;7.70;1.02;;;;;;;0.47;88.87;101438.19;4990705;28;20034;-73
2021/04/06 04:58:31;;;;;;;5.57;1.30;;;;;;;0.12;88.89;101365.41;4960224;28;20588;-74
2021/04/06 05:00:57;;;;;;;3.88;1.45;;;;;;;0.39;89.09;101411.41;4987505;28;20053;-74
2021/04/06 05:03:22;;;;;;;8.50;2.20;;;;;;;0.21;90.03;101402.66;4968572;28;20062;-73
2021/04/06 05:05:48;;;;;;;4.32;1.23;;;;;;;0.35;90.37;101415.97;4985416;28;20145;-74
2021/04/06 05:08:14;;;;;;;7.43;1.08;;;;;;;0.35;90.32;101407.22;4984792;28;20500;-74
2021/04/06 05:10:39;;;;;;;4.50;1.63;;;;;;;0.33;90.41;101414.34;4986556;28;20510;-74
2021/04/06 05:13:04;;;;;;;8.77;1.30;;;;;;;0.35;90.59;101412.47;4979011;28;20038;-74
2021/04/06 05:15:30;;;;;;;9.43;1.70;;;;;;;0.34;90.20;101416.06;4986985;28;20106;-74
2021/04/06 05:17:56;;;;;;;9.85;1.92;;;;;;;0.40;89.65;101407.88;4982868;28;20037;-73
2021/04/06 05:20:22;;;;;;;8.98;2.08;;;;;;;-0.01;89.32;101364.31;4988301;28;20587;-74
2021/04/06 05:22:49;;;;;;;9.10;2.15;;;;;;;0.39;89.28;101427.19;4981624;28;20043;-73
2021/04/06 05:25:14;;;;;;;11.73;1.83;;;;;;;0.49;88.63;101431.06;4979730;28;20061;-74
2021/04/06 05:27:40;;;;;;;12.02;2.00;;;;;;;0.58;88.17;101425.38;4981176;28;20097;-73
2021/04/06 05:30:06;;;;;;;12.20;2.35;;;;;;;0.67;87.58;101453.00;4985006;28;20039;-73
2021/04/06 05:32:32;;;;;;;13.13;2.33;;;;;;;0.46;87.66;101404.97;4966846;28;20485;-73
2021/04/06 05:34:57;;;;;;;13.18;1.90;;;;;;;0.78;88.42;101444.56;4984310;28;20026;-73
2021/04/06 05:37:22;;;;;;;8.32;2.42;;;;;;;0.58;89.21;101416.63;4984864;28;20057;-72
2021/04/06 05:39:48;;;;;;;10.43;3.20;;;;;;;0.74;89.21;101424.66;4983614;28;20049;-72
2021/04/06 05:42:14;;;;;;;11.38;2.90;;;;;;;0.79;89.04;101413.91;4986591;28;20548;-73
2021/04/06 05:44:45;;;;;;;10.32;2.38;;;;;;;0.83;89.10;101402.28;4979499;28;20026;-73
2021/04/06 05:47:34;;;;;;;12.13;1.70;;;;;;;0.85;89.09;101418.84;4985394;28;20066;-73
2021/04/06 05:50:01;;;;;;;9.32;1.65;;;;;;;0.93;88.33;101415.84;4980125;28;20096;-72
2021/04/06 05:52:29;;;;;;;11.48;2.05;;;;;;;0.98;87.56;101419.94;4975157;28;20065;-72
2021/04/06 05:54:56;;;;;;;7.15;2.53;;;;;;;1.01;87.71;101424.22;4980524;28;20117;-73
2021/04/06 05:57:21;;;;;;;9.73;2.10;;;;;;;1.09;88.07;101416.78;4974588;28;20041;-72
2021/04/06 05:59:47;;;;;;;8.52;1.50;;;;;;;1.21;87.46;101415.31;4965177;28;20034;-72
2021/04/06 06:02:12;;;;;;;6.05;1.20;;;;;;;1.34;86.20;101416.38;4963292;28;20050;-72
2021/04/06 06:04:38;;;;;;;8.07;1.40;;;;;;;1.44;85.06;101406.22;4982461;28;20057;-72
2021/04/06 06:07:03;;;;;;;7.95;2.28;;;;;;;1.60;83.95;101408.03;4984197;28;20042;-73
2021/04/06 06:09:30;;;;;;;9.02;1.55;;;;;;;1.64;83.66;101406.97;4975502;28;20350;-72
2021/04/06 06:12:01;;;;;;;10.80;1.75;;;;;;;1.67;83.05;101412.06;4987584;28;20109;-72
2021/04/06 06:14:36;;;;;;;8.25;1.45;;;;;;;1.02;82.11;101303.22;4982994;28;20057;-73
2021/04/06 06:17:25;;;;;;;10.90;2.08;;;;;;;1.55;82.36;101400.41;4975135;28;20110;-72
2021/04/06 06:19:59;;;;;;;11.15;2.50;;;;;;;1.39;82.87;101403.00;4987400;28;20509;-72
2021/04/06 06:22:29;;;;;;;9.68;1.98;;;;;;;1.34;83.04;101402.38;4975561;28;20030;-72
2021/04/06 06:25:13;;;;;;;12.07;1.90;;;;;;;1.40;82.58;101409.09;4970786;28;20030;-74
2021/04/06 06:27:41;;;;;;;16.08;2.15;;;;;;;1.51;83.33;101397.09;4988537;28;20030;-72
2021/04/06 06:30:22;;;;;;;;;;;;;;;1.80;83.10;101399.09;4983232;28;20081;-72
2021/04/06 06:32:48;;;;;;;8.93;2.22;;;;;;;2.67;82.52;101415.41;4985389;28;20407;-72
2021/04/06 06:35:34;;;;;;;14.82;2.38;;;;;;;3.16;76.06;101396.72;4964926;28;20062;-72
2021/04/06 06:38:14;;;;;;;6.47;1.67;;;;;;;3.40;75.71;101438.41;4981979;28;20034;-71
2021/04/06 06:40:39;;;;;;;6.13;1.92;;;;;;;3.00;77.27;101431.06;4978696;28;20034;-72
2021/04/06 06:43:05;;;;;;;9.45;1.35;;;;;;;2.58;79.04;101428.16;4990066;28;20042;-72
2021/04/06 06:45:34;;;;;;;9.20;1.70;;;;;;;2.25;80.83;101415.94;4987989;28;20031;-72
2021/04/06 06:47:59;;;;;;;7.80;1.70;;;;;;;1.91;81.60;101415.16;4975456;28;20030;-73
2021/04/06 06:50:26;;;;;;;12.65;2.40;;;;;;;1.88;82.83;101417.97;4974402;28;20031;-73
2021/04/06 06:52:53;;;;;;;10.63;1.60;;;;;;;1.58;83.38;101386.22;4983242;28;20035;-72
2021/04/06 06:55:23;;;;;;;11.15;1.83;;;;;;;1.58;84.10;101397.63;4956747;28;20078;-73
2021/04/06 06:57:50;;;;;;;12.70;2.13;;;;;;;1.57;84.79;101414.31;4990923;28;20031;-74
2021/04/06 07:00:18;;;;;;;8.65;1.88;;;;;;;1.63;84.25;101413.16;4971428;28;20035;-73
2021/04/06 07:02:44;;;;;;;;;;;;;;;1.62;84.57;101411.44;4974168;28;20050;-73
2021/04/06 07:05:11;;;;;;;10.27;1.50;;;;;;;1.84;86.53;101417.25;4970863;28;20263;-73
2021/04/06 07:07:56;;;;;;;12.15;2.03;;;;;;;3.04;83.10;101402.72;4985340;28;20030;-73
2021/04/06 07:10:26;;;;;;;9.77;2.35;;;;;;;4.97;75.15;101407.44;4965553;28;20044;-75
2021/04/06 07:13:10;;;;;;;13.10;2.65;;;;;;;6.74;67.10;101404.75;4982967;28;20090;-74
2021/04/06 07:15:39;;;;;;;9.88;2.70;;;;;;;8.00;61.90;101400.50;4985602;28;20431;-74
2021/04/06 07:18:15;;;;;;;11.77;2.17;;;;;;;9.05;57.20;101391.09;4977647;28;20042;-73
2021/04/06 07:20:43;;;;;;;12.27;2.25;;;;;;;9.10;55.62;101367.59;4974235;28;20019;-74
2021/04/06 07:23:13;;;;;;;10.93;2.40;;;;;;;8.76;57.46;101405.03;4975415;28;20031;-74
2021/04/06 07:25:41;;;;;;;10.35;2.08;;;;;;;8.45;57.55;101404.88;4984197;28;20026;-74
2021/04/06 07:28:07;;;;;;;7.82;1.92;;;;;;;8.22;58.27;101410.22;4979045;28;20034;-74
2021/04/06 07:30:32;;;;;;;7.72;1.65;;;;;;;7.95;57.80;101415.97;4964029;28;20038;-74
2021/04/06 07:32:58;;;;;;;7.03;2.10;;;;;;;7.00;60.12;101404.59;4976874;28;20499;-74
2021/04/06 07:35:26;;;;;;;10.43;2.22;;;;;;;6.25;62.34;101414.50;4979292;28;20026;-74
2021/04/06 07:37:51;;;;;;;11.03;2.03;;;;;;;5.62;66.30;101405.72;4985647;28;20173;-74
2021/04/06 07:40:20;;;;;;;11.50;2.20;;;;;;;6.11;66.10;101402.25;4967899;28;20876;-74
2021/04/06 07:42:47;;;;;;;11.63;1.90;;;;;;;6.65;66.85;101402.81;4972608;28;20508;-74
2021/04/06 07:45:21;;;;;;;16.10;2.70;;;;;;;7.00;62.56;101394.00;4976531;28;20062;-74
2021/04/06 07:47:47;;;;;;;11.50;2.58;;;;;;;6.74;64.11;101390.66;4984278;28;20484;-74
2021/04/06 07:50:13;;;;;;;11.02;2.20;;;;;;;7.01;64.26;101384.25;4971495;28;20034;-74
2021/04/06 07:52:39;;;;;;;16.13;2.63;;;;;;;8.31;61.48;101397.19;4976316;28;20034;-75
2021/04/06 07:55:06;;;;;;;10.85;2.72;;;;;;;9.71;59.09;101397.91;4968020;28;20050;-74
2021/04/06 07:57:43;;;;;;;9.85;2.92;;;;;;;10.58;52.57;101384.94;4978805;28;20596;-75
2021/04/06 08:00:09;;;;;;;9.30;2.20;;;;;;;9.60;54.89;101379.34;4976711;28;20042;-75
2021/04/06 08:02:43;;;;;;;13.75;2.92;;;;;;;9.22;57.13;101380.84;4966444;28;20054;-75
2021/04/06 08:05:11;;;;;;;12.15;3.10;;;;;;;9.28;55.56;101311.09;4988873;28;20129;-73
2021/04/06 08:07:37;;;;;;;10.57;2.88;;;;;;;9.96;54.46;101387.78;4982273;28;20085;-73
2021/04/06 08:10:22;;;;;;;10.98;2.72;;;;;;;10.30;54.40;101392.75;4976339;28;20117;-73
2021/04/06 08:12:49;;;;;;;11.15;2.65;;;;;;;11.84;50.23;101368.78;4981609;28;20072;-73
2021/04/06 08:15:19;;;;;;;11.15;2.50;;;;;;;13.30;45.52;101387.34;4973876;28;20027;-73
2021/04/06 08:17:59;;;;;;;8.88;2.33;;;;;;;14.55;39.81;101361.84;4968246;28;20062;-73
2021/04/06 08:20:34;;;;;;;10.70;1.83;;;;;;;14.80;37.98;101340.41;4969077;28;20042;-73
2021/04/06 08:23:09;;;;;;;6.30;1.60;;;;;;;13.87;39.79;101383.31;4976911;28;20026;-73
2021/04/06 08:25:34;;;;;;;5.43;1.55;;;;;;;14.16;39.67;101390.13;4961414;28;20173;-73
2021/04/06 08:28:02;;;;;;;5.43;1.75;;;;;;;14.74;36.88;101382.22;4978408;28;20117;-73
2021/04/06 08:30:30;;;;;;;3.85;1.35;;;;;;;14.64;36.94;101374.28;4983300;28;20038;-74
2021/04/06 08:32:56;;;;;;;4.32;1.38;;;;;;;14.17;36.57;101380.25;4986079;28;20038;-73
2021/04/06 08:35:47;;;;;;;4.93;1.55;;;;;;;13.58;38.53;101378.34;4981300;28;20133;-73
2021/04/06 08:38:22;;;;;;;4.97;1.50;;;;;;;13.89;36.70;101384.00;4993340;28;20035;-73
2021/04/06 08:40:56;;;;;;;4.22;1.30;;;;;;;13.38;38.05;101381.22;4976122;28;20129;-73
2021/04/06 08:43:23;;;;;;;5.28;1.33;;;;;;;13.34;38.21;101382.53;4978240;28;20051;-72
2021/04/06 08:45:54;;;;;;;3.95;1.30;;;;;;;13.79;37.73;101383.31;4970051;28;20057;-73
2021/04/06 08:48:55;;;;;;;3.97;1.13;;;;;;;14.22;35.79;101383.28;4978622;28;20053;-73
2021/04/06 08:51:25;;;;;;;3.72;1.13;;;;;;;14.42;35.70;101383.81;4963925;28;20065;-73
2021/04/06 08:53:52;;;;;;;3.00;1.10;;;;;;;14.88;35.40;101369.09;4985115;28;20034;-73
2021/04/06 08:56:21;;;;;;;5.90;1.70;;;;;;;15.39;34.54;101364.31;4966298;28;20027;-73
2021/04/06 08:58:47;;;;;;;4.53;1.73;;;;;;;15.43;34.67;101370.19;4981037;28;20034;-72
2021/04/06 09:01:13;;;;;;;4.53;1.67;;;;;;;15.71;32.79;101357.16;4969597;28;20074;-73
2021/04/06 09:03:38;;;;;;;3.67;1.50;;;;;;;15.91;32.57;101372.91;4978107;28;20027;-73
2021/04/06 09:06:09;;;;;;;7.70;1.77;;;;;;;15.40;34.25;101366.00;4961964;28;20129;-73
2021/04/06 09:08:55;;;;;;;5.28;1.88;;;;;;;14.74;34.89;101359.84;4973546;28;20121;-73
2021/04/06 09:11:24;;;;;;;9.27;1.98;;;;;;;14.96;35.87;101367.25;4978086;28;20039;-73
2021/04/06 09:13:53;;;;;;;7.45;1.75;;;;;;;15.65;34.51;101367.78;4983281;28;20038;-73
2021/04/06 09:16:26;;;;;;;10.27;1.73;;;;;;;16.05;33.95;101334.47;4984394;28;20481;-73
2021/04/06 09:18:57;;;;;;;8.27;1.83;;;;;;;16.48;33.05;101363.66;4974569;28;20030;-73
2021/04/06 09:21:24;;;;;;;9.07;2.40;;;;;;;14.98;37.10;101376.00;4981238;28;20509;-74
2021/04/06 09:23:56;;;;;;;10.50;1.98;;;;;;;13.40;41.12;101395.34;4963898;28;20026;-74
2021/04/06 09:26:22;;;;;;;6.70;2.00;;;;;;;11.14;44.69;101377.19;4983624;28;20117;-74
2021/04/06 09:28:58;;;;;;;8.13;2.22;;;;;;;9.90;49.83;101425.63;4967131;28;20033;-74
2021/04/06 09:31:26;;;;;;;8.90;1.55;;;;;;;8.11;54.55;101413.78;4973068;28;20038;-73
2021/04/06 09:33:52;;;;;;;5.22;1.30;;;;;;;7.35;55.83;101429.44;4975015;28;20019;-74
2021/04/06 09:36:18;;;;;;;2.58;1.00;;;;;;;6.47;60.21;101433.31;4975991;28;20500;-74
2021/04/06 09:38:43;;;;;;;3.65;1.10;;;;;;;5.26;63.91;101372.88;4977771;28;20041;-73
2021/04/06 09:41:11;;;;;;;3.80;1.10;;;;;;;5.31;64.20;101416.59;4978602;28;20034;-74
2021/04/06 09:43:37;;;;;;;2.60;0.70;;;;;;;4.94;67.10;101416.44;4981631;28;20031;-72
2021/04/06 09:46:03;;;;;;;3.00;0.82;;;;;;;4.71;67.87;101412.66;4978033;28;20041;-73
2021/04/06 09:48:28;;;;;;;2.05;0.93;;;;;;;4.44;70.61;101400.31;4978364;28;20093;-72
2021/04/06 09:51:00;;;;;;;3.70;0.98;;;;;;;4.53;69.98;101394.44;4980336;28;20460;-73
2021/04/06 09:53:26;;;;;;;4.80;1.88;;;;;;;5.70;65.56;101394.59;4979552;28;20122;-73
2021/04/06 09:55:55;;;;;;;3.53;1.13;;;;;;;7.38;62.28;101384.06;4982756;28;20489;-73
2021/04/06 09:58:21;;;;;;;3.83;1.42;;;;;;;8.95;56.84;101375.06;4979957;28;20034;-73
2021/04/06 10:00:47;;;;;;;3.65;1.40;;;;;;;9.29;55.32;101388.16;4978603;28;20084;-71
2021/04/06 10:03:15;;;;;;;8.52;1.75;;;;;;;9.10;54.99;101399.56;4964195;28;20065;-74
2021/04/06 10:05:44;;;;;;;3.85;1.20;;;;;;;8.50;56.29;101415.16;4985786;28;20034;-72
2021/04/06 10:08:12;;;;;;;4.32;1.30;;;;;;;7.33;59.12;101426.91;4983404;28;20038;-72
2021/04/06 10:10:46;;;;;;;2.20;0.80;;;;;;;6.32;60.35;101425.50;4977073;28;20038;-72
2021/04/06 10:13:11;;;;;;;6.05;1.60;;;;;;;5.37;65.31;101428.56;4974438;28;20112;-71
2021/04/06 10:15:37;;;;;;;4.13;0.85;;;;;;;4.83;64.46;101396.00;4984211;28;20042;-72
2021/04/06 10:18:11;;;;;;;7.50;1.30;;;;;;;4.60;66.73;101405.47;4966117;28;20038;-72
2021/04/06 10:20:44;;;;;;;4.32;1.00;;;;;;;4.35;68.73;101399.09;4972601;28;20026;-72
2021/04/06 10:23:10;;;;;;;8.38;1.20;;;;;;;4.00;71.02;101364.41;4977474;28;20026;-72
2021/04/06 10:25:42;;;;;;;7.00;1.30;;;;;;;4.10;71.40;101370.78;4973820;28;20046;-73
2021/04/06 10:28:18;;;;;;;6.00;1.67;;;;;;;4.22;70.95;101363.84;4985615;28;20019;-72
2021/04/06 10:30:56;;;;;;;6.53;1.48;;;;;;;4.14;73.69;101296.53;4965529;28;20018;-74
2021/04/06 10:33:38;;;;;;;4.00;1.42;;;;;;;4.65;72.27;101344.34;4970808;28;20040;-72
2021/04/06 10:36:07;;;;;;;8.88;1.50;;;;;;;4.89;71.20;101339.19;4976946;28;20153;-72
2021/04/06 10:38:37;;;;;;;2.78;0.82;;;;;;;5.08;68.28;101335.31;4976228;28;20030;-71
2021/04/06 10:41:06;;;;;;;7.63;1.13;;;;;;;5.03;67.07;101299.41;4974153;28;20036;-72
2021/04/06 10:43:32;;;;;;;2.28;0.77;;;;;;;5.18;66.36;101334.56;4974169;28;20050;-72
2021/04/06 10:46:09;;;;;;;4.50;1.50;;;;;;;5.27;66.59;101337.53;4978346;28;20042;-72
2021/04/06 10:48:38;;;;;;;5.90;1.17;;;;;;;5.49;66.52;101335.09;4979538;28;20061;-72
2021/04/06 10:51:15;;;;;;;6.78;1.55;;;;;;;5.57;66.58;101328.41;4975318;28;20441;-71
2021/04/06 10:53:47;;;;;;;5.28;1.35;;;;;;;5.77;67.44;101337.56;4979591;28;20072;-72
2021/04/06 10:56:18;;;;;;;7.72;1.80;;;;;;;6.01;67.24;101328.84;4976372;28;20018;-72
2021/04/06 10:58:44;;;;;;;6.22;1.48;;;;;;;6.22;65.05;101344.97;4981231;28;20026;-72
2021/04/06 11:01:12;;;;;;;4.25;1.13;;;;;;;5.86;67.00;101370.50;4985158;28;20105;-71
2021/04/06 11:03:52;;;;;;;6.90;1.10;;;;;;;5.29;69.59;101372.66;4986939;28;20469;-72
2021/04/06 11:06:26;;;;;;;6.35;1.65;;;;;;;4.57;70.98;101387.16;4991335;28;20031;-71
2021/04/06 11:08:53;;;;;;;3.85;1.27;;;;;;;4.02;72.41;101384.47;4981798;28;20081;-74
2021/04/06 11:11:23;;;;;;;6.18;1.30;;;;;;;3.45;75.36;101395.94;4961965;28;20047;-75
2021/04/06 11:13:49;;;;;;;4.13;1.20;;;;;;;2.97;76.62;101383.78;4977724;28;20031;-74
2021/04/06 11:16:15;;;;;;;2.75;1.20;;;;;;;2.77;77.85;101368.28;4981016;28;20390;-74
2021/04/06 11:18:41;;;;;;;9.38;1.85;;;;;;;2.68;79.37;101372.31;4982094;28;20101;-74
2021/04/06 11:21:08;;;;;;;4.95;1.20;;;;;;;2.69;80.61;101348.47;4982148;28;20033;-79
2021/04/06 11:23:33;;;;;;;4.18;1.08;;;;;;;2.63;81.13;101321.63;4980934;28;20153;-75
2021/04/06 11:25:59;;;;;;;6.72;1.30;;;;;;;2.66;81.36;101313.56;4959146;28;20031;-74
2021/04/06 11:28:25;;;;;;;4.22;1.40;;;;;;;3.10;80.97;101294.25;4974614;28;20423;-75
2021/04/06 11:30:51;;;;;;;3.33;1.20;;;;;;;3.72;81.19;101332.66;4979461;28;20034;-75
2021/04/06 11:33:17;;;;;;;4.13;1.15;;;;;;;4.09;80.09;101321.53;4974787;28;20414;-74
2021/04/06 11:35:42;;;;;;;5.22;1.40;;;;;;;4.52;78.89;101323.16;4978219;28;20490;-81
2021/04/06 11:38:09;;;;;;;4.90;1.30;;;;;;;4.90;74.49;101323.25;4978642;28;20057;-77
2021/04/06 11:40:35;;;;;;;4.50;1.20;;;;;;;5.15;75.54;101318.91;4974570;28;20030;-74